Date,TemperatureHighF,TemperatureAvgF,TemperatureLowF,DewpointHighF,DewpointAvgF,DewpointLowF,HumidityHigh,HumidityAvg,HumidityLow,PressureMaxIn,PressureMinIn,WindSpeedMaxMPH,WindSpeedAvgMPH,GustSpeedMaxMPH,PrecipitationSumIn
2013-1-1,35.3,28.9,16.4,26.6,19.2,6.9,78,67,55,29.94,29.74,7,3,14,0.00
2013-1-2,28.1,17.7,10.3,17.3,9.2,1.5,79,69,58,30.13,29.93,5,1,16,0.00
2013-1-3,23.8,13.8,2.6,12.8,1.9,-6.1,72,60,38,30.17,30.02,3,1,14,0.00
2013-1-4,36.4,29.0,20.7,24.8,20.5,13.2,79,71,60,30.01,29.84,10,3,20,0.01
2013-1-5,39.7,31.4,21.7,26.4,21.8,16.2,82,68,52,30.27,29.87,5,1,16,0.31
2013-1-6,40.1,31.1,22.2,30.1,25.3,17.5,91,79,64,30.24,29.96,5,1,10,0.21
2013-1-7,37.6,30.6,20.6,28.2,22.6,14.8,88,73,50,30.41,29.99,3,1,12,0.10
2013-1-8,43.8,33.2,20.0,30.4,25.4,15.1,84,73,56,30.38,30.29,9,3,18,0.05
2013-1-9,41.6,33.9,22.3,36.6,27.6,19.3,93,78,59,30.41,30.03,8,2,18,0.02
2013-1-10,44.4,37.6,29.0,29.7,26.1,23.3,79,64,49,30.55,30.07,9,2,15,0.00
2013-1-11,36.1,31.3,24.3,31.9,26.5,20.5,93,83,69,30.55,30.23,1,0,13,0.13
2013-1-12,40.7,37.1,33.8,39.9,35.9,32.1,99,95,93,30.24,30.13,1,0,3,0.03
2013-1-13,47.7,43.7,39.0,46.9,42.9,38.2,98,97,96,30.16,30.00,6,2,13,0.01
2013-1-14,57.0,47.4,37.4,51.7,41.5,29.2,98,81,49,30.26,29.86,6,2,18,0.00
2013-1-15,39.9,35.1,30.2,29.2,26.6,24.8,82,71,58,30.33,30.22,2,0,10,0.00
2013-1-16,32.4,31.2,28.4,30.9,28.0,24.3,94,88,74,30.26,29.83,0,0,3,0.01
2013-1-17,39.4,33.0,27.7,32.6,27.1,17.6,95,80,62,30.10,29.85,4,1,9,0.24
2013-1-18,27.6,21.2,16.1,17.0,5.5,0.8,64,50,38,30.46,30.06,6,1,11,0.00
2013-1-19,45.5,34.7,19.3,31.3,22.6,6.9,79,61,46,30.39,29.89,10,4,15,0.05
2013-1-20,50.4,38.3,25.5,32.5,25.9,11.0,79,62,36,29.93,29.56,16,4,25,0.00
2013-1-21,26.9,22.3,18.0,17.9,11.5,5.7,88,64,47,30.10,29.81,4,1,10,0.00
2013-1-22,22.4,17.3,9.8,17.6,7.5,-0.7,90,67,42,30.10,29.77,5,1,13,0.01
2013-1-23,15.3,8.9,4.1,2.2,-3.8,-8.2,72,56,41,30.16,30.08,6,2,12,0.00
2013-1-24,20.2,9.3,0.5,-1.5,-6.0,-9.2,65,50,36,30.27,30.11,6,2,13,0.00
2013-1-25,22.8,14.0,5.7,10.6,-3.0,-8.3,80,47,32,30.34,30.08,3,1,13,0.00
2013-1-26,24.2,14.4,6.9,11.1,4.6,-3.0,85,67,40,30.28,30.03,4,1,14,0.03
2013-1-27,30.5,18.6,8.8,8.7,4.3,1.1,75,55,34,30.50,30.27,3,1,14,0.00
2013-1-28,28.7,22.6,15.7,23.8,13.4,3.5,92,69,44,30.48,30.04,3,0,4,0.00
2013-1-29,33.2,28.9,23.7,30.8,26.8,21.7,100,92,88,30.21,30.03,1,0,3,0.08
2013-1-30,57.3,46.3,32.1,55.9,45.4,30.8,98,96,94,30.17,29.44,9,3,18,0.29
2013-1-31,59.3,45.8,28.7,57.9,36.9,15.8,96,72,45,29.59,28.97,14,6,24,0.71